sensor_id;sensor_type;location;lat;lon;timestamp;pressure;altitude;pressure_sealevel;temperature;humidity
30714;BME280;17465;47.934;33.430;2023-07-31T00:02:29;57613.21;;;-140.43;63.57
30714;BME280;17465;47.934;33.430;2023-07-31T00:05:00;57613.21;;;-140.43;63.57
30714;BME280;17465;47.934;33.430;2023-07-31T00:07:31;57570.85;;;-140.43;66.03
30714;BME280;17465;47.934;33.430;2023-07-31T00:10:02;57598.38;;;-140.43;62.62
30714;BME280;17465;47.934;33.430;2023-07-31T00:12:33;57598.38;;;-140.43;62.62
30714;BME280;17465;47.934;33.430;2023-07-31T00:15:06;57589.91;;;-140.43;63.36
30714;BME280;17465;47.934;33.430;2023-07-31T00:17:37;57568.73;;;-140.43;66.68
30714;BME280;17465;47.934;33.430;2023-07-31T00:20:08;57575.08;;;-140.43;66.16
30714;BME280;17465;47.934;33.430;2023-07-31T00:22:39;57575.08;;;-140.43;66.16
30714;BME280;17465;47.934;33.430;2023-07-31T00:25:10;57541.19;;;-140.43;68.75
30714;BME280;17465;47.934;33.430;2023-07-31T00:27:40;57541.19;;;-140.43;68.75
30714;BME280;17465;47.934;33.430;2023-07-31T00:30:11;57568.73;;;-140.43;68.14
30714;BME280;17465;47.934;33.430;2023-07-31T00:32:42;57556.02;;;-140.43;68.04
30714;BME280;17465;47.934;33.430;2023-07-31T00:35:12;57540.13;;;-140.43;72.21
30714;BME280;17465;47.934;33.430;2023-07-31T00:37:42;57540.13;;;-140.43;72.21
30714;BME280;17465;47.934;33.430;2023-07-31T00:40:13;57542.25;;;-140.43;71.80
30714;BME280;17465;47.934;33.430;2023-07-31T00:42:43;57522.12;;;-140.43;72.68
30714;BME280;17465;47.934;33.430;2023-07-31T00:45:14;57532.72;;;-140.43;71.22
30714;BME280;17465;47.934;33.430;2023-07-31T00:47:44;57520.01;;;-140.43;70.97
30714;BME280;17465;47.934;33.430;2023-07-31T00:50:15;57520.01;;;-140.43;70.97
30714;BME280;17465;47.934;33.430;2023-07-31T00:52:45;57513.65;;;-140.43;73.91
30714;BME280;17465;47.934;33.430;2023-07-31T00:55:16;57513.65;;;-140.43;73.91
30714;BME280;17465;47.934;33.430;2023-07-31T00:57:47;57510.48;;;-140.43;73.62
30714;BME280;17465;47.934;33.430;2023-07-31T01:00:18;57536.95;;;-140.43;71.62
30714;BME280;17465;47.934;33.430;2023-07-31T01:02:50;57536.95;;;-140.43;71.62
30714;BME280;17465;47.934;33.430;2023-07-31T01:05:29;57500.94;;;-140.43;75.91
30714;BME280;17465;47.934;33.430;2023-07-31T01:10:48;57528.48;;;-140.43;71.45
30714;BME280;17465;47.934;33.430;2023-07-31T01:13:18;57521.07;;;-140.43;72.28
30714;BME280;17465;47.934;33.430;2023-07-31T01:15:49;57514.71;;;-140.43;74.91
30714;BME280;17465;47.934;33.430;2023-07-31T01:18:19;57533.77;;;-140.43;72.85
30714;BME280;17465;47.934;33.430;2023-07-31T01:20:54;57556.02;;;-140.43;72.18
30714;BME280;17465;47.934;33.430;2023-07-31T01:23:56;57545.43;;;-140.43;72.41
30714;BME280;17465;47.934;33.430;2023-07-31T01:26:26;57546.48;;;-140.43;71.96
30714;BME280;17465;47.934;33.430;2023-07-31T01:31:37;57515.77;;;-140.43;73.97
30714;BME280;17465;47.934;33.430;2023-07-31T01:34:10;57515.77;;;-140.43;73.97
30714;BME280;17465;47.934;33.430;2023-07-31T01:36:41;57554.96;;;-140.43;73.86
30714;BME280;17465;47.934;33.430;2023-07-31T01:39:12;57518.95;;;-140.43;73.78
30714;BME280;17465;47.934;33.430;2023-07-31T01:41:42;57527.42;;;-140.43;74.74
30714;BME280;17465;47.934;33.430;2023-07-31T01:44:12;57497.77;;;-140.43;76.57
30714;BME280;17465;47.934;33.430;2023-07-31T01:46:42;57488.23;;;-140.43;75.23
30714;BME280;17465;47.934;33.430;2023-07-31T01:49:13;57512.59;;;-140.43;75.30
30714;BME280;17465;47.934;33.430;2023-07-31T01:51:43;57539.07;;;-140.43;75.03
30714;BME280;17465;47.934;33.430;2023-07-31T01:54:14;57520.01;;;-140.43;76.10
30714;BME280;17465;47.934;33.430;2023-07-31T01:56:44;57515.77;;;-140.43;75.91
30714;BME280;17465;47.934;33.430;2023-07-31T01:59:15;57460.70;;;-140.43;76.38
30714;BME280;17465;47.934;33.430;2023-07-31T02:01:47;57460.70;;;-140.43;76.38
30714;BME280;17465;47.934;33.430;2023-07-31T02:04:18;57514.71;;;-140.43;76.53
30714;BME280;17465;47.934;33.430;2023-07-31T02:06:48;57509.41;;;-140.43;76.90
30714;BME280;17465;47.934;33.430;2023-07-31T02:09:19;57500.94;;;-140.43;76.97
30714;BME280;17465;47.934;33.430;2023-07-31T02:11:49;57492.47;;;-140.43;77.53
30714;BME280;17465;47.934;33.430;2023-07-31T02:14:19;57518.95;;;-140.43;78.32
30714;BME280;17465;47.934;33.430;2023-07-31T02:16:49;57502.00;;;-140.43;78.42
30714;BME280;17465;47.934;33.430;2023-07-31T02:19:19;57478.70;;;-140.43;79.46
30714;BME280;17465;47.934;33.430;2023-07-31T02:21:50;57478.70;;;-140.43;79.46
30714;BME280;17465;47.934;33.430;2023-07-31T02:24:20;57520.01;;;-140.43;79.22
30714;BME280;17465;47.934;33.430;2023-07-31T02:26:50;57503.06;;;-140.43;79.95
30714;BME280;17465;47.934;33.430;2023-07-31T02:29:20;57486.12;;;-140.43;80.02
30714;BME280;17465;47.934;33.430;2023-07-31T02:31:50;57494.59;;;-140.43;80.55
30714;BME280;17465;47.934;33.430;2023-07-31T02:34:21;57494.59;;;-140.43;80.55
30714;BME280;17465;47.934;33.430;2023-07-31T02:36:51;57502.00;;;-140.43;80.72
30714;BME280;17465;47.934;33.430;2023-07-31T02:39:21;57493.53;;;-140.43;81.23
30714;BME280;17465;47.934;33.430;2023-07-31T02:41:52;57495.65;;;-140.43;81.89
30714;BME280;17465;47.934;33.430;2023-07-31T02:44:22;57499.88;;;-140.43;81.82
30714;BME280;17465;47.934;33.430;2023-07-31T02:46:52;57517.89;;;-140.43;81.57
30714;BME280;17465;47.934;33.430;2023-07-31T02:49:22;57500.94;;;-140.43;81.20
30714;BME280;17465;47.934;33.430;2023-07-31T02:51:53;57513.65;;;-140.43;81.40
30714;BME280;17465;47.934;33.430;2023-07-31T02:54:23;57527.42;;;-140.43;81.20
30714;BME280;17465;47.934;33.430;2023-07-31T02:56:53;57527.42;;;-140.43;81.20
30714;BME280;17465;47.934;33.430;2023-07-31T02:59:24;57520.01;;;-140.43;81.23
30714;BME280;17465;47.934;33.430;2023-07-31T03:01:54;57484.00;;;-140.43;81.25
30714;BME280;17465;47.934;33.430;2023-07-31T03:04:24;57484.00;;;-140.43;81.25
30714;BME280;17465;47.934;33.430;2023-07-31T03:06:55;57510.48;;;-140.43;81.38
30714;BME280;17465;47.934;33.430;2023-07-31T03:09:25;57510.48;;;-140.43;81.38
30714;BME280;17465;47.934;33.430;2023-07-31T03:11:55;57484.00;;;-140.43;80.91
30714;BME280;17465;47.934;33.430;2023-07-31T03:14:26;57488.23;;;-140.43;81.57
30714;BME280;17465;47.934;33.430;2023-07-31T03:16:56;57488.23;;;-140.43;81.57
30714;BME280;17465;47.934;33.430;2023-07-31T03:19:26;57517.89;;;-140.43;80.84
30714;BME280;17465;47.934;33.430;2023-07-31T03:21:56;57500.94;;;-140.43;80.86
30714;BME280;17465;47.934;33.430;2023-07-31T03:24:28;57516.83;;;-140.43;80.42
30714;BME280;17465;47.934;33.430;2023-07-31T03:26:58;57522.12;;;-140.43;80.13
30714;BME280;17465;47.934;33.430;2023-07-31T03:29:28;57503.06;;;-140.43;80.30
30714;BME280;17465;47.934;33.430;2023-07-31T03:31:59;57526.36;;;-140.43;80.12
30714;BME280;17465;47.934;33.430;2023-07-31T03:37:20;57507.30;;;-140.43;81.17
30714;BME280;17465;47.934;33.430;2023-07-31T03:39:50;57503.06;;;-140.43;80.88
30714;BME280;17465;47.934;33.430;2023-07-31T03:42:20;57503.06;;;-140.43;80.88
30714;BME280;17465;47.934;33.430;2023-07-31T03:44:50;57518.95;;;-140.43;80.35
30714;BME280;17465;47.934;33.430;2023-07-31T03:47:20;57503.06;;;-140.43;80.09
30714;BME280;17465;47.934;33.430;2023-07-31T03:49:51;57503.06;;;-140.43;80.09
30714;BME280;17465;47.934;33.430;2023-07-31T03:52:21;57516.83;;;-140.43;80.18
30714;BME280;17465;47.934;33.430;2023-07-31T03:54:51;57526.36;;;-140.43;82.71
30714;BME280;17465;47.934;33.430;2023-07-31T03:57:22;57500.94;;;-140.43;82.31
30714;BME280;17465;47.934;33.430;2023-07-31T03:59:52;57511.54;;;-140.43;82.63
30714;BME280;17465;47.934;33.430;2023-07-31T04:02:22;57535.89;;;-140.43;78.92
30714;BME280;17465;47.934;33.430;2023-07-31T04:04:52;57567.67;;;-140.43;78.61
30714;BME280;17465;47.934;33.430;2023-07-31T04:07:23;57540.13;;;-140.43;77.92
30714;BME280;17465;47.934;33.430;2023-07-31T04:09:53;57584.61;;;-140.43;77.07
30714;BME280;17465;47.934;33.430;2023-07-31T04:12:23;57584.61;;;-140.43;77.07
30714;BME280;17465;47.934;33.430;2023-07-31T04:14:55;57543.31;;;-140.43;76.75
30714;BME280;17465;47.934;33.430;2023-07-31T04:17:25;57566.61;;;-140.43;75.89
30714;BME280;17465;47.934;33.430;2023-07-31T04:19:58;57572.96;;;-140.43;76.91
30714;BME280;17465;47.934;33.430;2023-07-31T04:22:28;57572.96;;;-140.43;76.91
30714;BME280;17465;47.934;33.430;2023-07-31T04:24:59;57570.85;;;-140.43;76.69
30714;BME280;17465;47.934;33.430;2023-07-31T04:27:31;57557.08;;;-140.43;76.11
30714;BME280;17465;47.934;33.430;2023-07-31T04:32:57;57599.44;;;-140.43;74.64
30714;BME280;17465;47.934;33.430;2023-07-31T04:35:33;57598.38;;;-140.43;73.98
30714;BME280;17465;47.934;33.430;2023-07-31T04:37:59;57602.62;;;-140.43;74.16
30714;BME280;17465;47.934;33.430;2023-07-31T04:40:30;57583.55;;;-140.43;74.74
30714;BME280;17465;47.934;33.430;2023-07-31T04:43:02;57594.14;;;-140.43;73.16
30714;BME280;17465;47.934;33.430;2023-07-31T04:45:35;57594.14;;;-140.43;73.16
30714;BME280;17465;47.934;33.430;2023-07-31T04:48:05;57632.27;;;-140.43;75.03
30714;BME280;17465;47.934;33.430;2023-07-31T04:50:36;57603.68;;;-140.43;76.01
30714;BME280;17465;47.934;33.430;2023-07-31T04:53:06;57603.68;;;-140.43;76.01
30714;BME280;17465;47.934;33.430;2023-07-31T04:55:36;57633.34;;;-140.43;77.38
30714;BME280;17465;47.934;33.430;2023-07-31T04:58:09;57633.34;;;-140.43;77.38
30714;BME280;17465;47.934;33.430;2023-07-31T05:00:39;57600.50;;;-140.43;76.89
30714;BME280;17465;47.934;33.430;2023-07-31T05:03:10;57595.21;;;-140.43;76.78
30714;BME280;17465;47.934;33.430;2023-07-31T05:05:41;57595.21;;;-140.43;73.92
30714;BME280;17465;47.934;33.430;2023-07-31T05:08:12;57623.80;;;-140.43;73.90
30714;BME280;17465;47.934;33.430;2023-07-31T05:10:42;57623.80;;;-140.43;73.90
30714;BME280;17465;47.934;33.430;2023-07-31T05:13:12;57647.10;;;-140.43;70.65
30714;BME280;17465;47.934;33.430;2023-07-31T05:15:42;57647.10;;;-140.43;70.65
30714;BME280;17465;47.934;33.430;2023-07-31T05:18:13;57661.93;;;-140.43;68.85
30714;BME280;17465;47.934;33.430;2023-07-31T05:20:43;57661.93;;;-140.43;68.85
30714;BME280;17465;47.934;33.430;2023-07-31T05:23:13;57683.11;;;-140.43;64.97
30714;BME280;17465;47.934;33.430;2023-07-31T05:25:43;57683.11;;;-140.43;64.97
30714;BME280;17465;47.934;33.430;2023-07-31T05:28:14;57700.06;;;-140.43;65.20
30714;BME280;17465;47.934;33.430;2023-07-31T05:30:44;57751.96;;;-140.43;66.49
30714;BME280;17465;47.934;33.430;2023-07-31T05:33:14;57751.96;;;-140.43;66.49
30714;BME280;17465;47.934;33.430;2023-07-31T05:35:45;57767.85;;;-140.43;60.46
30714;BME280;17465;47.934;33.430;2023-07-31T05:38:15;57767.85;;;-140.43;60.46
30714;BME280;17465;47.934;33.430;2023-07-31T05:40:46;57779.50;;;-140.43;66.08
30714;BME280;17465;47.934;33.430;2023-07-31T05:43:16;57777.38;;;-140.43;61.27
30714;BME280;17465;47.934;33.430;2023-07-31T05:45:48;57771.03;;;-140.43;63.89
30714;BME280;17465;47.934;33.430;2023-07-31T05:48:18;57747.72;;;-140.43;63.01
30714;BME280;17465;47.934;33.430;2023-07-31T05:50:48;57800.68;;;-140.43;63.02
30714;BME280;17465;47.934;33.430;2023-07-31T05:53:19;57800.68;;;-140.43;63.02
30714;BME280;17465;47.934;33.430;2023-07-31T05:55:49;57840.93;;;-140.43;61.32
30714;BME280;17465;47.934;33.430;2023-07-31T05:58:20;57785.86;;;-140.43;58.65
30714;BME280;17465;47.934;33.430;2023-07-31T06:00:52;57821.87;;;-140.43;59.82
30714;BME280;17465;47.934;33.430;2023-07-31T06:03:24;57821.87;;;-140.43;59.82
30714;BME280;17465;47.934;33.430;2023-07-31T06:05:54;57826.11;;;-140.43;54.26
30714;BME280;17465;47.934;33.430;2023-07-31T06:08:24;57849.41;;;-140.43;54.63
30714;BME280;17465;47.934;33.430;2023-07-31T06:10:54;57849.41;;;-140.43;54.63
30714;BME280;17465;47.934;33.430;2023-07-31T06:13:25;57870.59;;;-140.43;57.23
30714;BME280;17465;47.934;33.430;2023-07-31T06:15:55;57894.95;;;-140.43;59.79
30714;BME280;17465;47.934;33.430;2023-07-31T06:18:25;57894.95;;;-140.43;59.79
30714;BME280;17465;47.934;33.430;2023-07-31T06:20:56;57880.12;;;-140.43;55.74
30714;BME280;17465;47.934;33.430;2023-07-31T06:23:27;57839.87;;;-140.43;59.34
30714;BME280;17465;47.934;33.430;2023-07-31T06:25:57;57812.34;;;-140.43;59.23
30714;BME280;17465;47.934;33.430;2023-07-31T06:28:30;57812.34;;;-140.43;59.23
30714;BME280;17465;47.934;33.430;2023-07-31T06:31:10;57902.37;;;-140.43;54.21
30714;BME280;17465;47.934;33.430;2023-07-31T06:33:41;57894.95;;;-140.43;54.97
30714;BME280;17465;47.934;33.430;2023-07-31T06:36:11;57894.95;;;-140.43;54.97
30714;BME280;17465;47.934;33.430;2023-07-31T06:38:42;57865.30;;;-140.43;51.59
30714;BME280;17465;47.934;33.430;2023-07-31T06:41:12;57865.30;;;-140.43;51.59
30714;BME280;17465;47.934;33.430;2023-07-31T06:43:42;57924.61;;;-140.43;46.72
30714;BME280;17465;47.934;33.430;2023-07-31T06:46:14;57919.32;;;-140.43;45.26
30714;BME280;17465;47.934;33.430;2023-07-31T06:48:44;57919.32;;;-140.43;45.26
30714;BME280;17465;47.934;33.430;2023-07-31T06:51:15;58001.94;;;-140.43;43.85
30714;BME280;17465;47.934;33.430;2023-07-31T06:53:46;58006.18;;;-140.43;41.73
30714;BME280;17465;47.934;33.430;2023-07-31T06:56:16;58033.72;;;-140.43;43.39
30714;BME280;17465;47.934;33.430;2023-07-31T06:58:46;58031.60;;;-140.43;43.30
30714;BME280;17465;47.934;33.430;2023-07-31T07:01:17;58049.61;;;-140.43;42.52
30714;BME280;17465;47.934;33.430;2023-07-31T07:03:47;58049.61;;;-140.43;42.52
30714;BME280;17465;47.934;33.430;2023-07-31T07:06:18;58078.21;;;-140.43;40.74
30714;BME280;17465;47.934;33.430;2023-07-31T07:08:51;58078.21;;;-140.43;40.74
30714;BME280;17465;47.934;33.430;2023-07-31T07:11:23;58099.39;;;-140.43;42.05
30714;BME280;17465;47.934;33.430;2023-07-31T07:13:53;58131.17;;;-140.43;40.39
30714;BME280;17465;47.934;33.430;2023-07-31T07:16:24;58072.91;;;-140.43;41.71
30714;BME280;17465;47.934;33.430;2023-07-31T07:18:54;58042.19;;;-140.43;42.50
30714;BME280;17465;47.934;33.430;2023-07-31T07:21:26;58034.78;;;-140.43;45.96
30714;BME280;17465;47.934;33.430;2023-07-31T07:23:56;57978.64;;;-140.43;46.00
30714;BME280;17465;47.934;33.430;2023-07-31T07:26:27;57998.76;;;-140.43;47.40
30714;BME280;17465;47.934;33.430;2023-07-31T07:28:58;57998.76;;;-140.43;47.40
30714;BME280;17465;47.934;33.430;2023-07-31T07:31:31;57925.68;;;-140.43;46.52
30714;BME280;17465;47.934;33.430;2023-07-31T07:34:02;57925.68;;;-140.43;46.52
30714;BME280;17465;47.934;33.430;2023-07-31T07:36:32;57926.73;;;-140.43;48.13
30714;BME280;17465;47.934;33.430;2023-07-31T07:39:03;57942.62;;;-140.43;47.54
30714;BME280;17465;47.934;33.430;2023-07-31T07:41:36;57919.32;;;-140.43;47.96
30714;BME280;17465;47.934;33.430;2023-07-31T07:44:09;57928.85;;;-140.43;46.77
30714;BME280;17465;47.934;33.430;2023-07-31T07:46:39;57919.32;;;-140.43;46.95
30714;BME280;17465;47.934;33.430;2023-07-31T07:49:10;57862.12;;;-140.43;48.06
30714;BME280;17465;47.934;33.430;2023-07-31T07:51:42;57862.12;;;-140.43;48.06
30714;BME280;17465;47.934;33.430;2023-07-31T07:54:13;57919.32;;;-140.43;46.63
30714;BME280;17465;47.934;33.430;2023-07-31T07:56:43;57896.02;;;-140.43;47.92
30714;BME280;17465;47.934;33.430;2023-07-31T07:59:15;57896.02;;;-140.43;47.92
30714;BME280;17465;47.934;33.430;2023-07-31T08:01:45;57942.62;;;-140.43;46.31
30714;BME280;17465;47.934;33.430;2023-07-31T08:04:17;57972.28;;;-140.43;45.65
30714;BME280;17465;47.934;33.430;2023-07-31T08:06:49;58033.72;;;-140.43;44.95
30714;BME280;17465;47.934;33.430;2023-07-31T08:09:19;58083.50;;;-140.43;43.94
30714;BME280;17465;47.934;33.430;2023-07-31T08:11:49;58018.89;;;-140.43;43.81
30714;BME280;17465;47.934;33.430;2023-07-31T08:14:20;58018.89;;;-140.43;43.81
30714;BME280;17465;47.934;33.430;2023-07-31T08:16:50;58065.50;;;-140.43;42.66
30714;BME280;17465;47.934;33.430;2023-07-31T08:19:20;58055.96;;;-140.43;43.05
30714;BME280;17465;47.934;33.430;2023-07-31T08:21:51;58118.46;;;-140.43;43.62
30714;BME280;17465;47.934;33.430;2023-07-31T08:24:23;58135.41;;;-140.43;42.94
30714;BME280;17465;47.934;33.430;2023-07-31T08:26:54;58289.01;;;-140.43;38.53
30714;BME280;17465;47.934;33.430;2023-07-31T08:29:25;58289.01;;;-140.43;38.53
30714;BME280;17465;47.934;33.430;2023-07-31T08:31:55;58285.84;;;-140.43;38.25
30714;BME280;17465;47.934;33.430;2023-07-31T08:34:26;58416.14;;;-140.43;35.02
30714;BME280;17465;47.934;33.430;2023-07-31T08:36:56;58311.26;;;-140.43;36.36
30714;BME280;17465;47.934;33.430;2023-07-31T08:39:28;58319.73;;;-140.43;36.45
30714;BME280;17465;47.934;33.430;2023-07-31T08:41:59;58364.23;;;-140.43;34.44
30714;BME280;17465;47.934;33.430;2023-07-31T08:44:30;58284.78;;;-140.43;36.39
30714;BME280;17465;47.934;33.430;2023-07-31T08:47:01;58346.22;;;-140.43;35.41
30714;BME280;17465;47.934;33.430;2023-07-31T08:49:32;58349.40;;;-140.43;35.17
30714;BME280;17465;47.934;33.430;2023-07-31T08:52:03;58329.27;;;-140.43;35.97
30714;BME280;17465;47.934;33.430;2023-07-31T08:54:34;58284.78;;;-140.43;36.36
30714;BME280;17465;47.934;33.430;2023-07-31T08:57:09;58445.80;;;-140.43;35.54
30714;BME280;17465;47.934;33.430;2023-07-31T08:59:38;58438.39;;;-140.43;34.35
30714;BME280;17465;47.934;33.430;2023-07-31T09:02:09;58492.42;;;-140.43;34.42
30714;BME280;17465;47.934;33.430;2023-07-31T09:04:40;58375.88;;;-140.43;34.76
30714;BME280;17465;47.934;33.430;2023-07-31T09:07:12;58308.08;;;-140.43;34.73
30714;BME280;17465;47.934;33.430;2023-07-31T09:09:44;58470.17;;;-140.43;32.48
30714;BME280;17465;47.934;33.430;2023-07-31T09:12:15;58439.45;;;-140.43;33.40
30714;BME280;17465;47.934;33.430;2023-07-31T09:14:47;58414.02;;;-140.43;34.10
30714;BME280;17465;47.934;33.430;2023-07-31T09:17:35;58512.55;;;-140.43;31.92
30714;BME280;17465;47.934;33.430;2023-07-31T09:20:17;58491.36;;;-140.43;32.89
30714;BME280;17465;47.934;33.430;2023-07-31T09:22:49;58491.36;;;-140.43;32.89
30714;BME280;17465;47.934;33.430;2023-07-31T09:25:24;58570.81;;;-140.43;31.73
30714;BME280;17465;47.934;33.430;2023-07-31T09:27:59;58632.26;;;-140.43;31.17
30714;BME280;17465;47.934;33.430;2023-07-31T09:30:29;58632.26;;;-140.43;31.17
30714;BME280;17465;47.934;33.430;2023-07-31T09:33:05;58483.94;;;-140.43;32.49
30714;BME280;17465;47.934;33.430;2023-07-31T09:35:35;58612.13;;;-140.43;30.81
30714;BME280;17465;47.934;33.430;2023-07-31T09:38:13;58548.56;;;-140.43;32.49
30714;BME280;17465;47.934;33.430;2023-07-31T09:41:00;58548.56;;;-140.43;32.49
30714;BME280;17465;47.934;33.430;2023-07-31T09:43:20;58518.90;;;-140.43;32.70
30714;BME280;17465;47.934;33.430;2023-07-31T09:45:57;58518.90;;;-140.43;32.70
30714;BME280;17465;47.934;33.430;2023-07-31T09:48:27;58594.12;;;-140.43;31.34
30714;BME280;17465;47.934;33.430;2023-07-31T09:51:02;58547.51;;;-140.43;31.78
30714;BME280;17465;47.934;33.430;2023-07-31T09:53:31;58596.24;;;-140.43;31.82
30714;BME280;17465;47.934;33.430;2023-07-31T09:56:01;58665.11;;;-140.43;30.73
30714;BME280;17465;47.934;33.430;2023-07-31T09:58:34;58750.93;;;-140.43;28.79
30714;BME280;17465;47.934;33.430;2023-07-31T10:01:04;58665.11;;;-140.43;30.87
30714;BME280;17465;47.934;33.430;2023-07-31T10:03:35;58648.15;;;-140.43;29.49
30714;BME280;17465;47.934;33.430;2023-07-31T10:06:07;58648.15;;;-140.43;29.49
30714;BME280;17465;47.934;33.430;2023-07-31T10:08:39;58585.64;;;-140.43;29.89
30714;BME280;17465;47.934;33.430;2023-07-31T10:11:11;58465.93;;;-140.43;30.46
30714;BME280;17465;47.934;33.430;2023-07-31T10:13:42;58465.93;;;-140.43;30.46
30714;BME280;17465;47.934;33.430;2023-07-31T10:16:14;58437.32;;;-140.43;31.54
30714;BME280;17465;47.934;33.430;2023-07-31T10:18:48;58530.55;;;-140.43;28.64
30714;BME280;17465;47.934;33.430;2023-07-31T10:21:18;58494.54;;;-140.43;29.47
30714;BME280;17465;47.934;33.430;2023-07-31T10:23:51;58457.45;;;-140.43;26.95
30714;BME280;17465;47.934;33.430;2023-07-31T10:26:23;58457.45;;;-140.43;26.95
30714;BME280;17465;47.934;33.430;2023-07-31T10:28:53;58521.02;;;-140.43;27.23
30714;BME280;17465;47.934;33.430;2023-07-31T10:31:24;58521.02;;;-140.43;27.23
30714;BME280;17465;47.934;33.430;2023-07-31T10:33:57;58579.29;;;-140.43;26.97
30714;BME280;17465;47.934;33.430;2023-07-31T10:36:27;58579.29;;;-140.43;26.97
30714;BME280;17465;47.934;33.430;2023-07-31T10:38:58;58644.98;;;-140.43;28.76
30714;BME280;17465;47.934;33.430;2023-07-31T10:41:31;58708.54;;;-140.43;26.97
30714;BME280;17465;47.934;33.430;2023-07-31T10:44:01;58678.88;;;-140.43;26.55
30714;BME280;17465;47.934;33.430;2023-07-31T10:46:33;58666.16;;;-140.43;25.90
30714;BME280;17465;47.934;33.430;2023-07-31T10:49:08;58669.34;;;-140.43;26.30
30714;BME280;17465;47.934;33.430;2023-07-31T10:51:38;58669.34;;;-140.43;26.30
30714;BME280;17465;47.934;33.430;2023-07-31T10:54:13;58836.74;;;-140.43;25.84
30714;BME280;17465;47.934;33.430;2023-07-31T10:56:49;58862.17;;;-140.43;25.56
30714;BME280;17465;47.934;33.430;2023-07-31T10:59:19;58862.17;;;-140.43;25.56
30714;BME280;17465;47.934;33.430;2023-07-31T11:01:54;58714.90;;;-140.43;26.40
30714;BME280;17465;47.934;33.430;2023-07-31T11:04:26;58714.90;;;-140.43;26.40
30714;BME280;17465;47.934;33.430;2023-07-31T11:06:58;58799.66;;;-140.43;26.18
30714;BME280;17465;47.934;33.430;2023-07-31T11:09:33;58857.93;;;-140.43;25.74
30714;BME280;17465;47.934;33.430;2023-07-31T11:12:04;58857.93;;;-140.43;25.74
30714;BME280;17465;47.934;33.430;2023-07-31T11:14:34;58761.52;;;-140.43;27.57
30714;BME280;17465;47.934;33.430;2023-07-31T11:17:08;58677.82;;;-140.43;26.69
30714;BME280;17465;47.934;33.430;2023-07-31T11:19:38;58653.45;;;-140.43;29.41
30714;BME280;17465;47.934;33.430;2023-07-31T11:22:08;58653.45;;;-140.43;29.41
30714;BME280;17465;47.934;33.430;2023-07-31T11:24:39;58767.87;;;-140.43;27.79
30714;BME280;17465;47.934;33.430;2023-07-31T11:27:09;58767.87;;;-140.43;27.79
30714;BME280;17465;47.934;33.430;2023-07-31T11:29:39;58771.05;;;-140.43;25.11
30714;BME280;17465;47.934;33.430;2023-07-31T11:32:15;58871.71;;;-140.43;24.71
30714;BME280;17465;47.934;33.430;2023-07-31T11:34:58;58833.57;;;-140.43;25.24
30714;BME280;17465;47.934;33.430;2023-07-31T11:37:25;58833.57;;;-140.43;25.24
30714;BME280;17465;47.934;33.430;2023-07-31T11:40:00;58802.84;;;-140.43;24.52
30714;BME280;17465;47.934;33.430;2023-07-31T11:42:30;58820.85;;;-140.43;26.39
30714;BME280;17465;47.934;33.430;2023-07-31T11:45:03;58820.85;;;-140.43;26.39
30714;BME280;17465;47.934;33.430;2023-07-31T11:47:37;58848.40;;;-140.43;24.29
30714;BME280;17465;47.934;33.430;2023-07-31T11:50:10;58848.40;;;-140.43;24.29
30714;BME280;17465;47.934;33.430;2023-07-31T11:52:42;58992.50;;;-140.43;23.80
30714;BME280;17465;47.934;33.430;2023-07-31T11:55:15;58875.95;;;-140.43;24.70
30714;BME280;17465;47.934;33.430;2023-07-31T11:57:47;58867.47;;;-140.43;24.36
30714;BME280;17465;47.934;33.430;2023-07-31T12:00:18;58867.47;;;-140.43;24.36
30714;BME280;17465;47.934;33.430;2023-07-31T12:02:48;58854.76;;;-140.43;23.55
30714;BME280;17465;47.934;33.430;2023-07-31T12:05:20;58760.46;;;-140.43;24.00
30714;BME280;17465;47.934;33.430;2023-07-31T12:07:54;58847.34;;;-140.43;23.19
30714;BME280;17465;47.934;33.430;2023-07-31T12:10:29;58923.62;;;-140.43;23.42
30714;BME280;17465;47.934;33.430;2023-07-31T12:13:02;58931.04;;;-140.43;22.64
30714;BME280;17465;47.934;33.430;2023-07-31T12:15:35;58931.04;;;-140.43;22.64
30714;BME280;17465;47.934;33.430;2023-07-31T12:18:11;58816.61;;;-140.43;24.03
30714;BME280;17465;47.934;33.430;2023-07-31T12:20:49;58802.84;;;-140.43;24.44
30714;BME280;17465;47.934;33.430;2023-07-31T12:23:28;58676.76;;;-140.43;24.63
30714;BME280;17465;47.934;33.430;2023-07-31T12:26:01;58610.01;;;-140.43;25.29
30714;BME280;17465;47.934;33.430;2023-07-31T12:28:46;58621.67;;;-140.43;24.43
30714;BME280;17465;47.934;33.430;2023-07-31T12:31:21;58686.30;;;-140.43;25.04
30714;BME280;17465;47.934;33.430;2023-07-31T12:33:52;58598.36;;;-140.43;25.44
30714;BME280;17465;47.934;33.430;2023-07-31T12:36:24;58620.61;;;-140.43;26.11
30714;BME280;17465;47.934;33.430;2023-07-31T12:38:55;58625.91;;;-140.43;24.96
30714;BME280;17465;47.934;33.430;2023-07-31T12:41:26;58615.31;;;-140.43;25.65
30714;BME280;17465;47.934;33.430;2023-07-31T12:43:56;58585.64;;;-140.43;25.47
30714;BME280;17465;47.934;33.430;2023-07-31T12:46:27;58644.98;;;-140.43;25.30
30714;BME280;17465;47.934;33.430;2023-07-31T12:48:57;58621.67;;;-140.43;24.79
30714;BME280;17465;47.934;33.430;2023-07-31T12:51:27;58654.51;;;-140.43;25.12
30714;BME280;17465;47.934;33.430;2023-07-31T12:53:57;58719.14;;;-140.43;24.52
30714;BME280;17465;47.934;33.430;2023-07-31T12:56:28;58878.07;;;-140.43;24.57
30714;BME280;17465;47.934;33.430;2023-07-31T12:58:58;58901.37;;;-140.43;23.52
30714;BME280;17465;47.934;33.430;2023-07-31T13:01:31;58901.37;;;-140.43;23.52
30714;BME280;17465;47.934;33.430;2023-07-31T13:04:01;58895.02;;;-140.43;23.26